Time;durP1;ratioP1;P1;durP2;ratioP2;P2;SDS_P1;SDS_P2;PMS_P1;PMS_P2;Temp;Humidity;BMP_temperature;BMP_pressure;BME280_temperature;BME280_humidity;BME280_pressure;Samples;Min_cycle;Max_cycle;Signal;HPM_P1;HPM_P2
2022/06/26 00:01:20;;;;;;;8.25;3.15;;;19.80;99.90;;;;;;4869169;29;20065;-66
2022/06/26 00:03:47;;;;;;;4.47;2.95;;;19.70;99.90;;;;;;4850880;29;20056;-66
2022/06/26 00:06:15;;;;;;;5.07;2.63;;;19.70;99.90;;;;;;4855943;29;20141;-65
2022/06/26 00:08:47;;;;;;;3.90;2.55;;;19.70;99.90;;;;;;4843843;29;20549;-66
2022/06/26 00:11:15;;;;;;;4.15;2.70;;;19.70;99.90;;;;;;4856134;29;20050;-66
2022/06/26 00:13:42;;;;;;;3.90;2.35;;;19.60;99.90;;;;;;4849146;29;20052;-66
2022/06/26 00:16:09;;;;;;;3.58;2.58;;;19.60;99.90;;;;;;4849013;29;20054;-66
2022/06/26 00:18:37;;;;;;;4.50;3.13;;;19.60;99.90;;;;;;4849058;29;20048;-67
2022/06/26 00:21:05;;;;;;;3.92;2.67;;;19.50;99.90;;;;;;4854284;29;20079;-66
2022/06/26 00:23:34;;;;;;;5.57;2.70;;;19.50;99.90;;;;;;4855311;29;20041;-66
2022/06/26 00:26:03;;;;;;;5.05;2.50;;;19.40;99.90;;;;;;4859508;29;20516;-66
2022/06/26 00:28:30;;;;;;;3.55;2.45;;;19.40;99.90;;;;;;4859271;29;20109;-66
2022/06/26 00:30:57;;;;;;;4.57;2.53;;;19.30;99.90;;;;;;4834002;29;20408;-66
2022/06/26 00:33:25;;;;;;;3.70;2.75;;;19.30;99.90;;;;;;4853966;29;20580;-66
2022/06/26 00:35:52;;;;;;;5.60;3.10;;;19.30;99.90;;;;;;4848632;29;20587;-66
2022/06/26 00:38:20;;;;;;;3.90;2.90;;;19.30;99.90;;;;;;4845674;29;20114;-66
2022/06/26 00:40:47;;;;;;;4.35;2.40;;;19.30;99.90;;;;;;4841273;29;20065;-66
2022/06/26 00:43:14;;;;;;;4.00;2.47;;;19.20;99.90;;;;;;4840771;29;20545;-66
2022/06/26 00:45:42;;;;;;;6.78;3.25;;;19.20;99.90;;;;;;4852701;29;20125;-66
2022/06/26 00:48:09;;;;;;;6.03;2.95;;;19.20;99.90;;;;;;4847188;29;20589;-65
2022/06/26 00:50:36;;;;;;;4.78;3.13;;;19.10;99.90;;;;;;4830288;29;20069;-66
2022/06/26 00:53:04;;;;;;;5.40;2.88;;;19.10;99.90;;;;;;4856785;29;20052;-65
2022/06/26 00:55:33;;;;;;;4.00;3.00;;;19.10;99.90;;;;;;4865686;29;20069;-65
2022/06/26 00:58:01;;;;;;;4.65;2.90;;;19.00;99.90;;;;;;4873317;29;20057;-65
2022/06/26 01:00:28;;;;;;;6.30;2.78;;;19.10;99.90;;;;;;4850960;29;20162;-66
2022/06/26 01:02:56;;;;;;;4.55;2.85;;;19.00;99.90;;;;;;4851169;29;20057;-69
2022/06/26 01:05:24;;;;;;;6.18;3.28;;;18.90;99.90;;;;;;4862167;29;20435;-65
2022/06/26 01:07:51;;;;;;;4.72;3.30;;;18.90;99.90;;;;;;4851643;29;20056;-65
2022/06/26 01:10:19;;;;;;;4.45;2.83;;;18.90;99.90;;;;;;4861075;29;20516;-65
2022/06/26 01:12:47;;;;;;;4.20;3.05;;;18.90;99.90;;;;;;4840575;29;20058;-65
2022/06/26 01:15:14;;;;;;;4.70;3.05;;;18.80;99.90;;;;;;4823899;29;20454;-65
2022/06/26 01:17:42;;;;;;;3.45;2.60;;;18.80;99.90;;;;;;4855826;29;20072;-65
2022/06/26 01:20:13;;;;;;;4.07;3.10;;;18.70;99.90;;;;;;4851510;29;20053;-65
2022/06/26 01:22:41;;;;;;;4.88;3.10;;;18.70;99.90;;;;;;4840520;29;20053;-65
2022/06/26 01:25:08;;;;;;;4.32;3.10;;;18.70;99.90;;;;;;4858448;29;20549;-65
2022/06/26 01:27:43;;;;;;;4.85;3.17;;;18.60;99.90;;;;;;4872774;29;20044;-65
2022/06/26 01:30:14;;;;;;;5.88;3.08;;;18.60;99.90;;;;;;4853455;29;20069;-65
2022/06/26 01:32:42;;;;;;;4.40;3.15;;;18.60;99.90;;;;;;4853013;29;20042;-65
2022/06/26 01:35:09;;;;;;;6.45;3.05;;;18.60;99.90;;;;;;4840075;29;20077;-65
2022/06/26 01:37:44;;;;;;;4.15;2.92;;;18.60;99.90;;;;;;4854077;29;20521;-65
2022/06/26 01:40:12;;;;;;;7.13;2.85;;;18.60;99.90;;;;;;4838587;29;20061;-69
2022/06/26 01:42:39;;;;;;;5.32;2.92;;;18.60;99.90;;;;;;4853622;29;20045;-67
2022/06/26 01:45:07;;;;;;;5.60;3.05;;;18.60;99.90;;;;;;4827819;29;20038;-66
2022/06/26 01:47:34;;;;;;;4.32;2.83;;;18.50;99.90;;;;;;4858138;29;20133;-67
2022/06/26 01:50:03;;;;;;;6.85;3.65;;;18.50;99.90;;;;;;4835176;29;20073;-66
2022/06/26 01:52:30;;;;;;;4.50;3.10;;;18.50;99.90;;;;;;4832136;29;20205;-67
2022/06/26 01:54:57;;;;;;;4.80;3.25;;;18.50;99.90;;;;;;4844177;29;20098;-67
2022/06/26 01:57:25;;;;;;;4.93;3.17;;;18.40;99.90;;;;;;4839624;29;20094;-66
2022/06/26 01:59:55;;;;;;;4.82;3.58;;;18.40;99.90;;;;;;4844381;29;20136;-66
2022/06/26 02:02:24;;;;;;;5.22;3.70;;;18.40;99.90;;;;;;4847515;29;20500;-66
2022/06/26 02:04:52;;;;;;;5.15;2.97;;;18.40;99.90;;;;;;4841216;29;20053;-67
2022/06/26 02:07:19;;;;;;;5.80;3.47;;;18.40;99.90;;;;;;4864795;29;20106;-66
2022/06/26 02:15:28;;;;;;;5.97;3.38;;;18.40;99.90;;;;;;4866598;29;20046;-66
2022/06/26 02:17:58;;;;;;;5.47;3.28;;;18.30;99.90;;;;;;4840070;29;20524;-66
2022/06/26 02:20:25;;;;;;;4.53;3.28;;;18.30;99.90;;;;;;4841355;29;20522;-67
2022/06/26 02:22:52;;;;;;;5.15;3.60;;;18.30;99.90;;;;;;4846857;29;20397;-67
2022/06/26 02:25:20;;;;;;;4.35;3.38;;;18.20;99.90;;;;;;4856044;29;20065;-68
2022/06/26 02:27:48;;;;;;;5.40;3.40;;;18.20;99.90;;;;;;4839408;29;20124;-67
2022/06/26 02:30:15;;;;;;;4.68;3.40;;;18.20;99.90;;;;;;4853594;29;20065;-66
2022/06/26 02:32:44;;;;;;;5.13;3.40;;;18.10;99.90;;;;;;4837642;29;20094;-67
2022/06/26 02:35:11;;;;;;;6.90;3.17;;;18.10;99.90;;;;;;4837503;29;20421;-67
2022/06/26 02:37:38;;;;;;;5.88;3.30;;;18.10;99.90;;;;;;4853122;29;20482;-67
2022/06/26 02:40:07;;;;;;;5.40;3.92;;;18.10;99.90;;;;;;4837386;29;20056;-66
2022/06/26 02:42:34;;;;;;;4.80;3.33;;;18.00;99.90;;;;;;4853669;29;20555;-67
2022/06/26 02:45:03;;;;;;;5.85;3.53;;;18.00;99.90;;;;;;4834744;29;20125;-67
2022/06/26 02:47:30;;;;;;;4.90;3.38;;;18.00;99.90;;;;;;4847690;29;20033;-68
2022/06/26 02:49:59;;;;;;;4.63;3.15;;;18.00;99.90;;;;;;4859061;29;20073;-66
2022/06/26 02:52:28;;;;;;;4.97;3.38;;;18.00;99.90;;;;;;4850755;29;20041;-67
2022/06/26 02:54:55;;;;;;;4.55;3.83;;;17.90;99.90;;;;;;4859582;29;20114;-67
2022/06/26 02:57:25;;;;;;;4.15;3.20;;;18.00;99.90;;;;;;4862215;29;20065;-66
2022/06/26 02:59:52;;;;;;;4.53;3.03;;;18.00;99.90;;;;;;4864069;29;20124;-66
2022/06/26 03:02:21;;;;;;;5.95;3.25;;;17.90;99.90;;;;;;4850119;29;20379;-67
2022/06/26 03:04:58;;;;;;;6.55;3.65;;;17.90;99.90;;;;;;4845570;29;20053;-67
2022/06/26 03:07:25;;;;;;;3.92;3.05;;;17.90;99.90;;;;;;4853456;29;20053;-67
2022/06/26 03:09:54;;;;;;;5.40;3.50;;;17.90;99.90;;;;;;4861906;29;20112;-67
2022/06/26 03:12:21;;;;;;;6.15;3.40;;;17.90;99.90;;;;;;4845011;29;20080;-66
2022/06/26 03:14:49;;;;;;;5.85;3.20;;;17.90;99.90;;;;;;4851505;29;20069;-67
2022/06/26 03:17:18;;;;;;;4.68;3.53;;;17.90;99.90;;;;;;4841863;29;20046;-66
2022/06/26 03:19:47;;;;;;;7.50;3.22;;;17.90;99.90;;;;;;4846414;29;20143;-67
2022/06/26 03:22:15;;;;;;;4.30;3.22;;;17.90;99.90;;;;;;4829818;29;20517;-65
2022/06/26 03:24:42;;;;;;;4.90;3.25;;;17.90;99.90;;;;;;4838540;29;20041;-65
2022/06/26 03:27:09;;;;;;;5.50;3.72;;;17.90;99.90;;;;;;4844207;29;20121;-65
2022/06/26 03:29:37;;;;;;;6.00;3.28;;;17.90;99.90;;;;;;4852469;29;20051;-65
2022/06/26 03:32:07;;;;;;;5.20;3.60;;;18.00;99.90;;;;;;4839808;29;20153;-68
2022/06/26 03:34:39;;;;;;;5.07;3.60;;;17.90;99.90;;;;;;4852295;29;20421;-65
2022/06/26 03:37:06;;;;;;;4.68;3.38;;;18.00;99.90;;;;;;4856018;29;20056;-65
2022/06/26 03:39:34;;;;;;;4.68;3.40;;;18.00;99.90;;;;;;4845366;29;20057;-65
2022/06/26 03:42:02;;;;;;;4.60;3.63;;;18.00;99.90;;;;;;4821681;29;20050;-65
2022/06/26 03:44:34;;;;;;;3.80;3.15;;;18.00;99.90;;;;;;4825162;29;20512;-65
2022/06/26 03:47:02;;;;;;;6.75;3.92;;;18.00;99.90;;;;;;4848163;29;20054;-65
2022/06/26 03:49:30;;;;;;;5.13;3.38;;;18.10;99.90;;;;;;4846187;29;20065;-65
2022/06/26 03:52:01;;;;;;;4.63;3.28;;;18.10;99.90;;;;;;4846709;29;20041;-66
2022/06/26 03:54:30;;;;;;;4.82;3.35;;;18.10;99.90;;;;;;4846910;29;20072;-66
2022/06/26 03:56:58;;;;;;;5.72;3.30;;;18.20;99.90;;;;;;4860183;29;20048;-65
2022/06/26 03:59:28;;;;;;;6.22;3.58;;;18.20;99.90;;;;;;4860316;29;20287;-66
2022/06/26 04:01:56;;;;;;;5.18;3.42;;;18.20;99.90;;;;;;4830410;29;20060;-66
2022/06/26 04:04:23;;;;;;;4.47;3.05;;;18.20;99.90;;;;;;4871375;29;20065;-65
2022/06/26 04:06:52;;;;;;;6.20;3.67;;;18.30;99.90;;;;;;4841491;29;20053;-66
2022/06/26 04:09:33;;;;;;;5.90;3.33;;;18.30;99.90;;;;;;4851748;29;20042;-67
2022/06/26 04:12:01;;;;;;;4.85;3.30;;;18.30;99.90;;;;;;4855347;29;20512;-65
2022/06/26 04:14:32;;;;;;;;;;;18.40;99.90;;;;;;4853778;29;20045;-65
2022/06/26 04:17:00;;;;;;;4.30;3.13;;;18.50;99.90;;;;;;4851274;29;20223;-65
2022/06/26 04:19:28;;;;;;;4.53;3.08;;;18.50;99.90;;;;;;4858279;29;20048;-65
2022/06/26 04:21:58;;;;;;;4.90;3.33;;;18.60;99.90;;;;;;4844265;29;20529;-65
2022/06/26 04:24:26;;;;;;;4.57;3.35;;;18.60;99.90;;;;;;4869882;29;20053;-66
2022/06/26 04:26:54;;;;;;;5.43;3.20;;;18.60;99.90;;;;;;4842130;29;20101;-66
2022/06/26 04:29:21;;;;;;;5.78;3.33;;;18.60;99.90;;;;;;4843116;29;20477;-66
2022/06/26 04:31:48;;;;;;;4.85;2.88;;;18.70;99.90;;;;;;4855182;29;20090;-66
2022/06/26 04:34:16;;;;;;;4.68;3.15;;;18.70;99.90;;;;;;4842887;29;20557;-66
2022/06/26 04:36:43;;;;;;;4.35;3.00;;;18.80;99.90;;;;;;4842580;29;20077;-66
2022/06/26 04:39:17;;;;;;;4.80;2.97;;;18.80;99.90;;;;;;4858154;29;20541;-66
2022/06/26 04:41:49;;;;;;;6.80;3.15;;;18.90;99.90;;;;;;4852124;29;20045;-66
2022/06/26 04:44:18;;;;;;;4.78;3.20;;;19.00;99.90;;;;;;4857968;29;20528;-66
2022/06/26 04:46:52;;;;;;;5.82;3.03;;;19.00;99.90;;;;;;4857857;29;20096;-65
2022/06/26 04:49:23;;;;;;;4.68;2.90;;;19.10;99.90;;;;;;4858234;29;20504;-66
2022/06/26 04:51:50;;;;;;;6.38;3.30;;;19.20;99.90;;;;;;4853398;29;20056;-66
2022/06/26 04:54:24;;;;;;;5.70;3.38;;;19.20;99.90;;;;;;4830182;29;20105;-66
2022/06/26 04:56:52;;;;;;;5.72;3.10;;;19.40;99.90;;;;;;4846968;29;20106;-65
2022/06/26 04:59:20;;;;;;;4.18;3.17;;;19.40;99.90;;;;;;4853388;29;20546;-65
2022/06/26 05:01:47;;;;;;;4.38;2.97;;;19.50;99.90;;;;;;4870255;29;20579;-66
2022/06/26 05:04:33;;;;;;;9.82;3.10;;;19.50;99.90;;;;;;4846156;29;20041;-66
2022/06/26 05:07:24;;;;;;;4.90;3.10;;;19.60;99.90;;;;;;4800916;29;20615;-66
2022/06/26 05:09:51;;;;;;;5.13;3.25;;;19.70;99.90;;;;;;4795480;29;20058;-66
2022/06/26 05:12:18;;;;;;;4.60;3.33;;;19.60;99.90;;;;;;4807331;29;20462;-66
2022/06/26 05:15:09;;;;;;;4.57;2.90;;;19.60;99.90;;;;;;4799405;29;20055;-66
2022/06/26 05:17:41;;;;;;;4.25;3.00;;;19.70;99.90;;;;;;4793168;29;20464;-66
2022/06/26 05:20:08;;;;;;;5.97;3.70;;;19.90;99.90;;;;;;4784783;29;20063;-67
2022/06/26 05:22:36;;;;;;;5.38;3.78;;;20.00;99.90;;;;;;4801492;29;20542;-66
2022/06/26 05:25:05;;;;;;;7.20;3.45;;;20.10;99.90;;;;;;4784686;29;20063;-65
2022/06/26 05:27:33;;;;;;;6.85;3.30;;;20.10;99.90;;;;;;4789098;29;20136;-65
2022/06/26 05:30:00;;;;;;;4.22;3.17;;;20.20;99.90;;;;;;4780884;29;20078;-65
2022/06/26 05:32:35;;;;;;;4.13;3.20;;;20.30;99.90;;;;;;4786079;29;20050;-65
2022/06/26 05:35:07;;;;;;;5.90;3.22;;;20.30;99.90;;;;;;4799546;29;20053;-66
2022/06/26 05:37:34;;;;;;;4.95;3.40;;;20.40;99.90;;;;;;4791226;29;20516;-65
2022/06/26 05:40:03;;;;;;;7.15;3.80;;;20.50;99.90;;;;;;4784970;29;20116;-65
2022/06/26 05:42:35;;;;;;;4.95;3.05;;;20.60;99.90;;;;;;4785256;29;20067;-65
2022/06/26 05:45:02;;;;;;;4.47;2.90;;;20.60;99.90;;;;;;4826195;29;20058;-66
2022/06/26 05:47:30;;;;;;;4.75;2.95;;;20.70;99.90;;;;;;4821030;29;20536;-66
2022/06/26 05:50:23;;;;;;;5.75;3.22;;;20.90;99.90;;;;;;4822206;29;20058;-66
2022/06/26 05:53:09;;;;;;;3.70;2.83;;;21.00;99.90;;;;;;4822838;29;20041;-66
2022/06/26 05:55:39;;;;;;;3.92;2.90;;;21.10;99.90;;;;;;4857701;29;20069;-66
2022/06/26 05:58:25;;;;;;;4.97;3.00;;;21.10;99.90;;;;;;4858250;29;20488;-66
2022/06/26 06:01:09;;;;;;;4.15;2.88;;;21.30;99.90;;;;;;4866908;29;20496;-66
2022/06/26 06:03:37;;;;;;;7.10;3.00;;;21.30;99.90;;;;;;4841385;29;20041;-65
2022/06/26 06:06:05;;;;;;;7.68;2.65;;;21.30;99.90;;;;;;4825341;29;20046;-65
2022/06/26 06:08:34;;;;;;;4.38;2.70;;;21.40;99.90;;;;;;4863336;29;20053;-65
2022/06/26 06:11:01;;;;;;;8.40;2.72;;;21.50;99.90;;;;;;4839583;29;20493;-66
2022/06/26 06:13:30;;;;;;;5.53;2.97;;;21.50;99.90;;;;;;4841116;29;20041;-66
2022/06/26 06:15:57;;;;;;;8.48;5.40;;;21.50;99.90;;;;;;4856593;29;20045;-66
2022/06/26 06:18:25;;;;;;;7.10;4.18;;;21.60;99.90;;;;;;4833988;29;20589;-65
2022/06/26 06:20:53;;;;;;;6.45;4.38;;;21.70;99.90;;;;;;4840859;29;20061;-65
2022/06/26 06:23:37;;;;;;;5.75;3.45;;;21.80;99.90;;;;;;4831914;29;20073;-65
2022/06/26 06:26:05;;;;;;;4.25;2.80;;;21.80;99.90;;;;;;4864265;29;20045;-66
2022/06/26 06:28:33;;;;;;;6.57;3.40;;;21.90;99.90;;;;;;4869594;29;20117;-65
2022/06/26 06:31:00;;;;;;;5.13;3.45;;;21.90;99.90;;;;;;4845353;29;20092;-66
2022/06/26 06:33:28;;;;;;;5.68;3.95;;;22.00;99.90;;;;;;4840351;29;20462;-66
2022/06/26 06:35:57;;;;;;;5.85;4.00;;;22.10;99.90;;;;;;4852115;29;20049;-66
2022/06/26 06:38:27;;;;;;;4.07;2.90;;;22.20;99.90;;;;;;4867125;29;20117;-66
2022/06/26 06:40:57;;;;;;;6.22;2.97;;;22.30;99.90;;;;;;4869747;29;20516;-66
2022/06/26 06:43:33;;;;;;;5.10;2.72;;;22.40;99.90;;;;;;4840551;29;20389;-66
2022/06/26 06:46:20;;;;;;;3.88;2.08;;;22.50;99.90;;;;;;4827608;29;20057;-66
2022/06/26 06:48:58;;;;;;;5.10;3.00;;;22.60;99.90;;;;;;4853003;29;20460;-65
2022/06/26 06:51:30;;;;;;;6.75;3.90;;;22.70;99.90;;;;;;4832840;29;20130;-63
2022/06/26 06:53:57;;;;;;;3.47;2.15;;;22.70;99.90;;;;;;4856428;29;20524;-64
2022/06/26 06:56:24;;;;;;;4.78;1.83;;;22.80;99.90;;;;;;4854959;29;20105;-64
2022/06/26 06:58:52;;;;;;;4.93;2.50;;;22.90;99.90;;;;;;4845292;29;20059;-63
2022/06/26 07:01:19;;;;;;;4.55;2.90;;;23.00;99.90;;;;;;4871133;29;20049;-64
2022/06/26 07:03:47;;;;;;;3.90;2.38;;;23.10;99.90;;;;;;4838143;29;20136;-63
2022/06/26 07:06:14;;;;;;;5.55;3.13;;;23.20;99.90;;;;;;4849076;29;20428;-63
2022/06/26 07:08:41;;;;;;;3.95;1.95;;;23.30;99.90;;;;;;4849894;29;20362;-63
2022/06/26 07:11:08;;;;;;;2.35;1.42;;;23.40;99.90;;;;;;4865985;29;20037;-63
2022/06/26 07:13:35;;;;;;;3.83;1.90;;;23.40;99.90;;;;;;4856363;29;20141;-62
2022/06/26 07:16:03;;;;;;;3.10;1.70;;;23.40;99.90;;;;;;4853131;29;20523;-62
2022/06/26 07:18:30;;;;;;;3.85;2.17;;;23.50;99.90;;;;;;4855472;29;20065;-63
2022/06/26 07:20:58;;;;;;;4.20;1.98;;;23.60;99.90;;;;;;4869707;29;20065;-63
2022/06/26 07:23:25;;;;;;;2.35;1.60;;;23.70;99.90;;;;;;4856965;29;20461;-62
2022/06/26 07:26:02;;;;;;;4.15;1.50;;;23.70;99.90;;;;;;4870877;29;20053;-63
2022/06/26 07:28:36;;;;;;;5.35;2.95;;;23.90;99.90;;;;;;4844595;29;20046;-64
2022/06/26 07:31:03;;;;;;;4.70;3.42;;;24.00;99.90;;;;;;4845348;29;20085;-63
2022/06/26 07:36:16;;;;;;;3.50;1.80;;;24.10;99.90;;;;;;4854438;29;20049;-63
2022/06/26 07:38:44;;;;;;;3.88;2.28;;;24.20;99.90;;;;;;4870085;29;20076;-64
2022/06/26 07:41:14;;;;;;;2.90;1.70;;;24.20;99.90;;;;;;4831878;29;20582;-64
2022/06/26 07:43:42;;;;;;;2.58;1.60;;;24.30;99.90;;;;;;4848372;29;20421;-63
2022/06/26 07:46:09;;;;;;;3.20;1.38;;;24.40;99.90;;;;;;4864815;29;20045;-64
2022/06/26 07:48:37;;;;;;;3.67;1.92;;;24.50;99.90;;;;;;4824243;29;20503;-63
2022/06/26 07:51:05;;;;;;;10.50;4.05;;;24.50;99.90;;;;;;4849937;29;20408;-64
2022/06/26 07:53:33;;;;;;;8.05;4.90;;;24.70;99.90;;;;;;4852573;29;20402;-64
2022/06/26 07:56:00;;;;;;;4.22;2.60;;;24.70;99.90;;;;;;4848646;29;20492;-64
2022/06/26 07:58:27;;;;;;;3.80;1.98;;;24.90;99.90;;;;;;4852598;29;20504;-63
2022/06/26 08:00:55;;;;;;;3.03;1.60;;;24.90;99.90;;;;;;4854590;29;20145;-64
2022/06/26 08:03:22;;;;;;;2.83;1.90;;;25.00;99.90;;;;;;4855905;29;20120;-65
2022/06/26 08:05:50;;;;;;;2.72;1.50;;;25.10;99.90;;;;;;4849871;29;20048;-64
2022/06/26 08:08:17;;;;;;;2.90;1.83;;;25.10;99.90;;;;;;4846751;29;20049;-64
2022/06/26 08:10:45;;;;;;;2.55;1.60;;;25.20;99.90;;;;;;4845204;29;20166;-65
2022/06/26 08:13:12;;;;;;;4.45;2.40;;;25.30;99.90;;;;;;4848286;29;20413;-64
2022/06/26 08:15:39;;;;;;;3.78;1.70;;;25.40;99.90;;;;;;4849297;29;20052;-65
2022/06/26 08:18:07;;;;;;;2.67;1.50;;;25.50;99.90;;;;;;4848293;29;20136;-64
2022/06/26 08:20:34;;;;;;;3.58;2.05;;;25.70;99.90;;;;;;4848215;29;20054;-65
2022/06/26 08:23:02;;;;;;;3.20;1.70;;;25.70;99.90;;;;;;4849462;29;20045;-64
2022/06/26 08:25:29;;;;;;;2.55;1.40;;;25.80;99.90;;;;;;4859625;29;20153;-65
2022/06/26 08:27:56;;;;;;;6.00;3.80;;;25.60;99.90;;;;;;4845436;29;20049;-64
2022/06/26 08:30:24;;;;;;;2.75;1.90;;;25.70;99.90;;;;;;4841285;29;20140;-64
2022/06/26 08:32:54;;;;;;;4.30;1.50;;;25.80;99.90;;;;;;4831581;29;20041;-64
2022/06/26 08:35:21;;;;;;;3.15;1.70;;;26.00;99.90;;;;;;4845366;29;20042;-65
2022/06/26 08:37:48;;;;;;;2.72;1.60;;;26.10;99.90;;;;;;4847031;29;20052;-64
2022/06/26 08:40:16;;;;;;;2.75;1.60;;;26.20;99.90;;;;;;4855815;29;20054;-63
2022/06/26 08:42:48;;;;;;;4.10;2.55;;;26.20;99.90;;;;;;4857255;29;20058;-63
2022/06/26 08:45:21;;;;;;;2.72;1.63;;;26.20;99.90;;;;;;4838904;29;20054;-64
2022/06/26 08:47:52;;;;;;;3.58;2.00;;;26.20;99.90;;;;;;4844536;29;20054;-65
2022/06/26 08:50:21;;;;;;;3.15;1.98;;;26.20;99.90;;;;;;4845030;29;20060;-63
2022/06/26 08:52:53;;;;;;;2.83;1.58;;;26.20;99.90;;;;;;4845597;29;20050;-63
2022/06/26 08:55:20;;;;;;;1.80;1.05;;;26.30;99.90;;;;;;4854141;29;20055;-64
2022/06/26 08:57:48;;;;;;;3.03;1.35;;;26.40;99.90;;;;;;4846068;29;20059;-65
2022/06/26 09:00:16;;;;;;;1.75;1.10;;;26.50;99.90;;;;;;4857881;29;20136;-63
2022/06/26 09:02:44;;;;;;;3.30;1.50;;;26.60;99.90;;;;;;4846737;29;20556;-64
2022/06/26 09:05:11;;;;;;;3.50;2.17;;;26.70;99.90;;;;;;4851364;29;20800;-63
2022/06/26 09:07:51;;;;;;;3.92;1.83;;;26.70;99.90;;;;;;4858738;29;20428;-63
2022/06/26 09:10:22;;;;;;;1.77;1.30;;;26.70;99.90;;;;;;4847030;29;20053;-64
2022/06/26 09:12:53;;;;;;;3.80;1.98;;;26.70;99.90;;;;;;4848898;29;20504;-64
2022/06/26 09:15:22;;;;;;;2.17;1.30;;;26.90;99.90;;;;;;4854705;29;20048;-65
2022/06/26 09:18:10;;;;;;;2.97;1.10;;;26.90;99.90;;;;;;4850536;29;20204;-63
2022/06/26 09:20:50;;;;;;;5.22;1.50;;;27.00;99.90;;;;;;4851866;29;20057;-63
2022/06/26 09:23:18;;;;;;;2.38;1.35;;;27.10;99.90;;;;;;4847820;29;20543;-63
2022/06/26 09:25:46;;;;;;;5.55;1.10;;;27.20;99.90;;;;;;4836232;29;20145;-64
2022/06/26 09:28:14;;;;;;;3.75;1.65;;;27.30;99.90;;;;;;4843103;29;20480;-64
2022/06/26 09:30:53;;;;;;;2.38;1.30;;;27.30;99.90;;;;;;4840315;29;20501;-63
2022/06/26 09:33:27;;;;;;;4.55;1.50;;;27.50;99.90;;;;;;4849882;29;20580;-64
2022/06/26 09:35:56;;;;;;;2.83;1.27;;;27.70;99.90;;;;;;4857253;29;20053;-66
2022/06/26 09:38:32;;;;;;;6.28;4.40;;;27.80;99.90;;;;;;4853865;29;20054;-63
2022/06/26 09:41:04;;;;;;;3.53;2.00;;;28.00;99.90;;;;;;4853792;29;20049;-62
2022/06/26 09:43:37;;;;;;;3.78;1.20;;;28.10;99.90;;;;;;4853691;29;20050;-63
2022/06/26 09:46:08;;;;;;;2.88;1.27;;;28.00;99.90;;;;;;4853966;29;20061;-63
2022/06/26 09:48:37;;;;;;;8.70;5.93;;;27.80;99.90;;;;;;4849292;29;20117;-64
2022/06/26 09:51:08;;;;;;;2.10;1.10;;;27.90;99.90;;;;;;4853844;29;20053;-65
2022/06/26 09:53:38;;;;;;;1.95;1.10;;;28.00;99.90;;;;;;4851270;29;20054;-65
2022/06/26 09:56:06;;;;;;;1.23;0.90;;;28.10;99.90;;;;;;4853417;29;20056;-64
2022/06/26 09:58:33;;;;;;;1.77;1.25;;;28.20;99.90;;;;;;4850047;29;20054;-65
2022/06/26 10:06:37;;;;;;;2.70;1.10;;;28.80;99.90;;;;;;4844688;29;20404;-64
2022/06/26 10:09:07;;;;;;;2.40;1.02;;;28.70;99.90;;;;;;4844825;29;20046;-64
2022/06/26 10:11:40;;;;;;;4.53;3.10;;;28.90;99.90;;;;;;4845489;29;20054;-62
2022/06/26 10:14:17;;;;;;;2.53;0.90;;;28.80;99.90;;;;;;4850097;29;20049;-63
2022/06/26 10:17:26;;;;;;;3.75;2.00;;;29.00;99.90;;;;;;4848228;29;20386;-63
2022/06/26 10:19:58;;;;;;;3.95;1.10;;;29.30;99.90;;;;;;4843313;29;20427;-63
2022/06/26 10:22:25;;;;;;;2.22;1.13;;;29.40;99.90;;;;;;4844213;29;20050;-63
2022/06/26 10:25:04;;;;;;;0.85;0.82;;;29.40;99.90;;;;;;4848923;29;20049;-63
2022/06/26 10:27:34;;;;;;;1.27;1.00;;;29.30;99.90;;;;;;4849644;29;20049;-64
2022/06/26 10:30:04;;;;;;;2.40;0.90;;;29.50;99.90;;;;;;4852376;29;20061;-66
2022/06/26 10:32:32;;;;;;;2.38;1.05;;;29.60;99.90;;;;;;4847139;29;20079;-63
2022/06/26 10:34:59;;;;;;;1.45;1.05;;;29.80;99.90;;;;;;4844376;29;20077;-63
2022/06/26 10:37:27;;;;;;;3.17;1.00;;;30.00;99.90;;;;;;4857136;29;20484;-64
2022/06/26 10:39:55;;;;;;;2.20;1.00;;;30.30;99.90;;;;;;4856919;29;20135;-63
2022/06/26 10:45:20;;;;;;;1.75;0.82;;;30.90;98.70;;;;;;4843501;29;20053;-63
2022/06/26 10:47:51;;;;;;;1.92;1.17;;;31.00;97.80;;;;;;4830026;29;20520;-64
2022/06/26 10:50:21;;;;;;;;;;;31.20;97.30;;;;;;4856636;29;20462;-64
2022/06/26 10:52:49;;;;;;;1.88;1.10;;;31.20;97.20;;;;;;4846059;29;19928;-62
2022/06/26 10:55:16;;;;;;;2.22;1.00;;;31.10;96.80;;;;;;4856086;29;20065;-64
2022/06/26 10:57:43;;;;;;;1.40;0.90;;;31.20;97.10;;;;;;4851583;29;20046;-62
2022/06/26 11:00:13;;;;;;;1.95;0.80;;;31.10;96.50;;;;;;4847976;29;20057;-63
2022/06/26 11:02:44;;;;;;;4.07;1.13;;;31.00;96.40;;;;;;4842683;29;20049;-62
2022/06/26 11:05:12;;;;;;;1.55;0.90;;;31.10;96.30;;;;;;4856948;29;20057;-62
2022/06/26 11:07:51;;;;;;;3.20;1.20;;;31.30;95.70;;;;;;4856809;29;20184;-63
2022/06/26 11:10:21;;;;;;;2.50;1.10;;;31.10;95.90;;;;;;4845266;29;20120;-63
2022/06/26 11:12:50;;;;;;;3.70;2.00;;;31.60;95.40;;;;;;4848128;29;20053;-64
2022/06/26 11:15:32;;;;;;;3.05;1.70;;;32.10;94.60;;;;;;4851191;29;20046;-62
2022/06/26 11:18:02;;;;;;;4.07;2.45;;;32.70;94.00;;;;;;4846541;29;20149;-62
2022/06/26 11:20:52;;;;;;;2.88;1.65;;;33.00;93.40;;;;;;4849082;29;20475;-64
2022/06/26 11:23:29;;;;;;;2.17;1.00;;;33.40;92.50;;;;;;4847886;29;20053;-62
2022/06/26 11:26:03;;;;;;;6.72;3.97;;;33.60;91.70;;;;;;4871117;29;20088;-63
2022/06/26 11:28:42;;;;;;;2.03;1.05;;;33.70;91.40;;;;;;4848004;29;20045;-62
2022/06/26 11:31:19;;;;;;;2.85;1.63;;;33.60;90.80;;;;;;4856415;29;20505;-64
2022/06/26 11:33:46;;;;;;;1.60;1.10;;;33.60;90.90;;;;;;4840028;29;20042;-66
2022/06/26 11:36:16;;;;;;;1.90;1.00;;;33.50;90.70;;;;;;4856709;29;20165;-64
2022/06/26 11:38:48;;;;;;;2.67;1.00;;;33.50;90.40;;;;;;4853002;29;20517;-65
2022/06/26 11:41:15;;;;;;;;;;;34.00;90.10;;;;;;4838785;29;20497;-65
2022/06/26 11:43:47;;;;;;;2.58;1.20;;;34.10;89.30;;;;;;4834949;29;22039;-64
2022/06/26 11:46:15;;;;;;;1.17;0.90;;;33.80;89.10;;;;;;4837731;29;20137;-64
2022/06/26 11:48:43;;;;;;;6.38;2.53;;;33.60;89.50;;;;;;4838189;29;20046;-66
2022/06/26 11:51:13;;;;;;;5.40;2.97;;;33.30;89.30;;;;;;4838190;29;20049;-64
2022/06/26 11:53:44;;;;;;;2.22;1.40;;;33.70;89.30;;;;;;4838580;29;20133;-65
2022/06/26 11:56:17;;;;;;;;;;;34.20;86.80;;;;;;4849682;29;20049;-65
2022/06/26 11:58:47;;;;;;;1.40;1.00;;;34.50;85.90;;;;;;4837679;29;20347;-64
2022/06/26 12:01:15;;;;;;;2.10;1.00;;;35.00;85.00;;;;;;4847307;29;20397;-65
2022/06/26 12:03:50;;;;;;;1.52;0.93;;;35.70;83.40;;;;;;4847852;29;20053;-64
2022/06/26 12:06:39;;;;;;;3.25;1.20;;;36.40;80.90;;;;;;4843828;29;20049;-65
2022/06/26 12:09:20;;;;;;;1.95;1.00;;;36.20;79.20;;;;;;4853073;29;20401;-65
2022/06/26 12:11:50;;;;;;;1.65;1.00;;;36.30;78.30;;;;;;4842789;29;20402;-64
2022/06/26 12:14:19;;;;;;;4.63;1.98;;;37.00;76.80;;;;;;4839935;29;20573;-64
2022/06/26 12:16:57;;;;;;;3.22;1.58;;;37.20;74.80;;;;;;4844470;29;20481;-64
2022/06/26 12:19:36;;;;;;;1.75;0.80;;;36.50;74.00;;;;;;4850978;29;20064;-64
2022/06/26 12:22:06;;;;;;;1.23;0.90;;;36.60;73.40;;;;;;4845061;29;20577;-64
2022/06/26 12:24:33;;;;;;;1.38;0.90;;;36.60;74.00;;;;;;4848103;29;20053;-65
2022/06/26 12:27:02;;;;;;;1.15;0.82;;;37.30;73.20;;;;;;4855275;29;20512;-64
2022/06/26 12:29:33;;;;;;;1.98;1.20;;;38.30;71.50;;;;;;4852187;29;20655;-64
2022/06/26 12:32:00;;;;;;;;;;;38.80;69.30;;;;;;4850634;29;20513;-65
2022/06/26 12:34:28;;;;;;;2.50;1.52;;;39.80;68.70;;;;;;4836097;29;19957;-62
2022/06/26 12:36:55;;;;;;;3.20;0.85;;;39.90;65.50;;;;;;4849255;29;20413;-64
2022/06/26 12:39:29;;;;;;;0.93;0.75;;;38.80;65.30;;;;;;4849899;29;20058;-64
2022/06/26 12:42:09;;;;;;;1.75;0.93;;;37.90;66.90;;;;;;4869505;29;20529;-65
2022/06/26 12:44:36;;;;;;;1.77;1.20;;;36.40;68.60;;;;;;4864093;29;20429;-66
2022/06/26 12:47:04;;;;;;;3.67;2.10;;;35.70;70.10;;;;;;4839356;29;20088;-64
2022/06/26 12:49:31;;;;;;;2.55;1.20;;;35.70;71.90;;;;;;4858548;29;20497;-64
2022/06/26 12:51:59;;;;;;;3.05;1.70;;;36.20;71.40;;;;;;4845834;29;20585;-66
2022/06/26 12:54:26;;;;;;;2.90;1.30;;;36.90;70.80;;;;;;4859106;29;20509;-63
2022/06/26 12:56:53;;;;;;;1.80;1.20;;;38.20;70.10;;;;;;4846219;29;20422;-64
2022/06/26 12:59:20;;;;;;;3.35;1.08;;;38.40;67.80;;;;;;4841139;29;20050;-64
2022/06/26 13:01:48;;;;;;;2.13;1.23;;;37.40;68.20;;;;;;4851221;29;20075;-63
2022/06/26 13:04:15;;;;;;;1.60;1.00;;;37.00;69.00;;;;;;4846003;29;20080;-64
2022/06/26 13:06:42;;;;;;;1.92;1.10;;;36.80;69.10;;;;;;4849862;29;20057;-64
2022/06/26 13:09:09;;;;;;;5.85;4.30;;;36.40;69.70;;;;;;4849797;29;20045;-62
2022/06/26 13:11:37;;;;;;;2.42;1.73;;;37.30;68.50;;;;;;4849920;29;20056;-65
2022/06/26 13:14:04;;;;;;;1.52;1.05;;;38.30;68.00;;;;;;4850008;29;20050;-64
2022/06/26 13:16:39;;;;;;;2.03;0.90;;;39.20;65.90;;;;;;4847419;29;20049;-64
2022/06/26 13:19:08;;;;;;;1.05;0.80;;;39.70;64.10;;;;;;4858900;29;20041;-64